sensor_id;sensor_type;location;lat;lon;timestamp;pressure;altitude;pressure_sealevel;temperature;humidity
42951;BME280;28592;51.064;17.192;2022-10-13T00:00:54;101061.36;;;5.06;100.00
42951;BME280;28592;51.064;17.192;2022-10-13T00:03:41;101060.50;;;5.06;100.00
42951;BME280;28592;51.064;17.192;2022-10-13T00:06:32;101050.16;;;5.03;100.00
42951;BME280;28592;51.064;17.192;2022-10-13T00:09:18;101061.36;;;5.06;100.00
42951;BME280;28592;51.064;17.192;2022-10-13T00:12:03;101055.33;;;5.04;100.00
42951;BME280;28592;51.064;17.192;2022-10-13T00:14:49;101048.47;;;5.02;100.00
42951;BME280;28592;51.064;17.192;2022-10-13T00:17:34;101052.86;;;5.01;100.00
42951;BME280;28592;51.064;17.192;2022-10-13T00:20:22;101053.56;;;5.05;100.00
42951;BME280;28592;51.064;17.192;2022-10-13T00:23:08;101052.04;;;5.01;100.00
42951;BME280;28592;51.064;17.192;2022-10-13T00:25:53;101045.23;;;4.97;100.00
42951;BME280;28592;51.064;17.192;2022-10-13T00:28:39;101047.27;;;4.92;100.00
42951;BME280;28592;51.064;17.192;2022-10-13T00:31:27;101040.47;;;4.88;100.00
42951;BME280;28592;51.064;17.192;2022-10-13T00:34:13;101039.89;;;4.83;100.00
42951;BME280;28592;51.064;17.192;2022-10-13T00:36:58;101035.54;;;4.82;100.00
42951;BME280;28592;51.064;17.192;2022-10-13T00:39:44;101036.64;;;4.78;100.00
42951;BME280;28592;51.064;17.192;2022-10-13T00:42:32;101035.78;;;4.77;100.00
42951;BME280;28592;51.064;17.192;2022-10-13T00:45:23;101029.63;;;4.78;100.00
42951;BME280;28592;51.064;17.192;2022-10-13T00:48:09;101029.70;;;4.77;100.00
42951;BME280;28592;51.064;17.192;2022-10-13T00:50:57;101036.40;;;4.82;100.00
42951;BME280;28592;51.064;17.192;2022-10-13T00:53:46;101034.63;;;4.83;100.00
42951;BME280;28592;51.064;17.192;2022-10-13T00:56:33;101034.63;;;4.83;100.00
42951;BME280;28592;51.064;17.192;2022-10-13T00:59:26;101038.16;;;4.82;100.00
42951;BME280;28592;51.064;17.192;2022-10-13T01:02:13;101032.25;;;4.78;100.00
42951;BME280;28592;51.064;17.192;2022-10-13T01:04:59;101029.70;;;4.77;100.00
42951;BME280;28592;51.064;17.192;2022-10-13T01:07:47;101033.02;;;4.63;100.00
42951;BME280;28592;51.064;17.192;2022-10-13T01:28:29;101019.90;;;4.63;100.00
42951;BME280;28592;51.064;17.192;2022-10-13T01:34:19;101015.12;;;4.54;100.00
42951;BME280;28592;51.064;17.192;2022-10-13T01:40:17;101016.46;;;4.46;100.00
42951;BME280;28592;51.064;17.192;2022-10-13T01:43:11;101009.05;;;4.54;100.00
42951;BME280;28592;51.064;17.192;2022-10-13T01:46:08;101001.02;;;4.57;100.00
42951;BME280;28592;51.064;17.192;2022-10-13T01:49:04;100994.67;;;4.61;100.00
42951;BME280;28592;51.064;17.192;2022-10-13T01:51:54;101001.77;;;4.59;100.00
42951;BME280;28592;51.064;17.192;2022-10-13T01:54:41;100994.05;;;4.56;100.00
42951;BME280;28592;51.064;17.192;2022-10-13T01:57:33;100989.91;;;4.52;100.00
42951;BME280;28592;51.064;17.192;2022-10-13T02:00:20;100986.50;;;4.50;100.00
42951;BME280;28592;51.064;17.192;2022-10-13T02:03:16;100987.44;;;4.49;100.00
42951;BME280;28592;51.064;17.192;2022-10-13T02:09:07;100978.30;;;4.56;100.00
42951;BME280;28592;51.064;17.192;2022-10-13T02:11:58;100972.23;;;4.55;100.00
42951;BME280;28592;51.064;17.192;2022-10-13T02:14:48;100982.19;;;4.49;100.00
42951;BME280;28592;51.064;17.192;2022-10-13T02:17:35;100977.02;;;4.47;100.00
42951;BME280;28592;51.064;17.192;2022-10-13T02:20:20;100974.08;;;4.53;100.00
42951;BME280;28592;51.064;17.192;2022-10-13T02:23:14;100975.52;;;4.59;100.00
42951;BME280;28592;51.064;17.192;2022-10-13T02:26:04;100976.30;;;4.61;100.00
42951;BME280;28592;51.064;17.192;2022-10-13T02:28:49;100976.30;;;4.61;100.00
42951;BME280;28592;51.064;17.192;2022-10-13T02:31:35;100975.89;;;4.68;100.00
42951;BME280;28592;51.064;17.192;2022-10-13T02:34:20;100968.27;;;4.64;100.00
42951;BME280;28592;51.064;17.192;2022-10-13T02:37:06;100967.73;;;4.57;100.00
42951;BME280;28592;51.064;17.192;2022-10-13T02:39:51;100977.56;;;4.54;100.00
42951;BME280;28592;51.064;17.192;2022-10-13T02:42:37;100975.68;;;4.56;100.00
42951;BME280;28592;51.064;17.192;2022-10-13T02:45:23;100975.84;;;4.53;100.00
42951;BME280;28592;51.064;17.192;2022-10-13T02:48:09;100969.61;;;4.55;100.00
42951;BME280;28592;51.064;17.192;2022-10-13T02:50:57;100970.35;;;4.57;100.00
42951;BME280;28592;51.064;17.192;2022-10-13T02:53:42;100965.27;;;4.54;100.00
42951;BME280;28592;51.064;17.192;2022-10-13T02:56:27;100963.83;;;4.49;100.00
42951;BME280;28592;51.064;17.192;2022-10-13T02:59:13;100961.12;;;4.50;100.00
42951;BME280;28592;51.064;17.192;2022-10-13T03:01:58;100961.12;;;4.50;100.00
42951;BME280;28592;51.064;17.192;2022-10-13T03:04:44;100969.39;;;4.43;100.00
42951;BME280;28592;51.064;17.192;2022-10-13T03:07:29;100960.20;;;4.34;100.00
42951;BME280;28592;51.064;17.192;2022-10-13T03:10:15;100963.06;;;4.30;100.00
42951;BME280;28592;51.064;17.192;2022-10-13T03:13:00;100957.07;;;4.28;100.00
42951;BME280;28592;51.064;17.192;2022-10-13T03:15:46;100969.41;;;4.26;100.00
42951;BME280;28592;51.064;17.192;2022-10-13T03:18:32;100964.64;;;4.17;100.00
42951;BME280;28592;51.064;17.192;2022-10-13T03:21:17;100966.16;;;4.21;100.00
42951;BME280;28592;51.064;17.192;2022-10-13T03:24:03;100961.70;;;4.23;100.00
42951;BME280;28592;51.064;17.192;2022-10-13T03:26:49;100960.17;;;4.19;100.00
42951;BME280;28592;51.064;17.192;2022-10-13T03:29:35;100972.34;;;4.20;100.00
42951;BME280;28592;51.064;17.192;2022-10-13T03:32:20;100959.47;;;4.15;100.00
42951;BME280;28592;51.064;17.192;2022-10-13T03:35:06;100961.23;;;4.15;100.00
42951;BME280;28592;51.064;17.192;2022-10-13T03:37:53;100964.02;;;4.12;100.00
42951;BME280;28592;51.064;17.192;2022-10-13T03:40:38;100966.71;;;4.10;100.00
42951;BME280;28592;51.064;17.192;2022-10-13T03:43:23;100964.48;;;4.20;100.00
42951;BME280;28592;51.064;17.192;2022-10-13T03:46:11;100966.23;;;4.19;100.00
42951;BME280;28592;51.064;17.192;2022-10-13T03:48:57;100967.57;;;4.11;100.00
42951;BME280;28592;51.064;17.192;2022-10-13T03:51:42;100961.31;;;4.13;100.00
42951;BME280;28592;51.064;17.192;2022-10-13T03:54:30;100956.06;;;4.13;100.00
42951;BME280;28592;51.064;17.192;2022-10-13T03:57:16;100959.63;;;4.12;100.00
42951;BME280;28592;51.064;17.192;2022-10-13T04:00:01;100962.25;;;4.12;100.00
42951;BME280;28592;51.064;17.192;2022-10-13T04:02:50;100959.08;;;4.06;100.00
42951;BME280;28592;51.064;17.192;2022-10-13T04:05:39;100953.40;;;3.98;100.00
42951;BME280;28592;51.064;17.192;2022-10-13T04:08:29;100950.77;;;3.98;100.00
42951;BME280;28592;51.064;17.192;2022-10-13T04:11:19;100953.59;;;3.93;100.00
42951;BME280;28592;51.064;17.192;2022-10-13T04:14:08;100954.45;;;3.94;100.00
42951;BME280;28592;51.064;17.192;2022-10-13T04:16:53;100950.08;;;3.94;100.00
42951;BME280;28592;51.064;17.192;2022-10-13T04:19:39;100950.15;;;3.93;100.00
42951;BME280;28592;51.064;17.192;2022-10-13T04:22:27;100945.97;;;3.89;100.00
42951;BME280;28592;51.064;17.192;2022-10-13T04:25:13;100953.08;;;3.87;100.00
42951;BME280;28592;51.064;17.192;2022-10-13T04:27:58;100944.36;;;3.86;100.00
42951;BME280;28592;51.064;17.192;2022-10-13T04:30:44;100942.59;;;3.87;100.00
42951;BME280;28592;51.064;17.192;2022-10-13T04:33:29;100934.80;;;3.85;100.00
42951;BME280;28592;51.064;17.192;2022-10-13T04:36:16;100938.80;;;3.92;100.00
42951;BME280;28592;51.064;17.192;2022-10-13T04:39:02;100944.98;;;3.91;100.00
42951;BME280;28592;51.064;17.192;2022-10-13T04:41:48;100945.97;;;3.89;100.00
42951;BME280;28592;51.064;17.192;2022-10-13T04:44:34;100943.58;;;3.84;100.00
42951;BME280;28592;51.064;17.192;2022-10-13T04:47:19;100941.03;;;3.83;100.00
42951;BME280;28592;51.064;17.192;2022-10-13T04:50:05;100942.05;;;3.80;100.00
42951;BME280;28592;51.064;17.192;2022-10-13T04:52:54;100937.66;;;3.81;100.00
42951;BME280;28592;51.064;17.192;2022-10-13T04:55:42;100932.27;;;3.84;100.00
42951;BME280;28592;51.064;17.192;2022-10-13T04:58:28;100942.59;;;3.87;100.00
42951;BME280;28592;51.064;17.192;2022-10-13T05:01:17;100940.88;;;3.86;100.00
42951;BME280;28592;51.064;17.192;2022-10-13T05:04:04;100938.25;;;3.86;100.00
42951;BME280;28592;51.064;17.192;2022-10-13T05:06:52;100934.80;;;3.85;100.00
42951;BME280;28592;51.064;17.192;2022-10-13T05:09:37;100938.25;;;3.86;100.00
42951;BME280;28592;51.064;17.192;2022-10-13T05:12:23;100939.19;;;3.85;100.00
42951;BME280;28592;51.064;17.192;2022-10-13T05:15:11;100936.89;;;3.96;100.00
42951;BME280;28592;51.064;17.192;2022-10-13T05:17:58;100933.41;;;3.95;100.00
42951;BME280;28592;51.064;17.192;2022-10-13T05:20:47;100933.40;;;4.12;100.00
42951;BME280;28592;51.064;17.192;2022-10-13T05:23:35;100927.14;;;4.15;100.00
42951;BME280;28592;51.064;17.192;2022-10-13T05:26:24;100929.52;;;4.19;100.00
42951;BME280;28592;51.064;17.192;2022-10-13T05:29:12;100931.75;;;4.27;100.00
42951;BME280;28592;51.064;17.192;2022-10-13T05:31:58;100929.58;;;4.35;100.00
42951;BME280;28592;51.064;17.192;2022-10-13T05:34:43;100929.58;;;4.35;100.00
42951;BME280;28592;51.064;17.192;2022-10-13T05:37:32;100932.63;;;4.60;100.00
42951;BME280;28592;51.064;17.192;2022-10-13T05:40:17;100920.08;;;4.65;100.00
42951;BME280;28592;51.064;17.192;2022-10-13T05:43:05;100922.98;;;4.76;100.00
42951;BME280;28592;51.064;17.192;2022-10-13T05:45:50;100926.66;;;4.89;100.00
42951;BME280;28592;51.064;17.192;2022-10-13T05:48:36;100925.03;;;5.02;100.00
42951;BME280;28592;51.064;17.192;2022-10-13T05:51:27;100928.61;;;5.16;100.00
42951;BME280;28592;51.064;17.192;2022-10-13T05:54:22;100929.00;;;5.24;100.00
42951;BME280;28592;51.064;17.192;2022-10-13T05:57:20;100928.83;;;5.43;100.00
42951;BME280;28592;51.064;17.192;2022-10-13T06:00:12;100928.83;;;5.43;100.00
42951;BME280;28592;51.064;17.192;2022-10-13T06:03:10;100924.78;;;5.67;100.00
42951;BME280;28592;51.064;17.192;2022-10-13T06:05:57;100925.20;;;5.75;100.00
42951;BME280;28592;51.064;17.192;2022-10-13T06:08:45;100924.34;;;5.75;100.00
42951;BME280;28592;51.064;17.192;2022-10-13T06:11:31;100920.75;;;5.91;100.00
42951;BME280;28592;51.064;17.192;2022-10-13T06:14:16;100916.66;;;6.01;100.00
42951;BME280;28592;51.064;17.192;2022-10-13T06:17:02;100922.59;;;6.19;100.00
42951;BME280;28592;51.064;17.192;2022-10-13T06:19:48;100917.25;;;6.20;100.00
42951;BME280;28592;51.064;17.192;2022-10-13T06:22:34;100910.30;;;6.19;100.00
42951;BME280;28592;51.064;17.192;2022-10-13T06:25:20;100918.42;;;6.44;100.00
42951;BME280;28592;51.064;17.192;2022-10-13T06:28:08;100920.11;;;6.59;100.00
42951;BME280;28592;51.064;17.192;2022-10-13T06:30:54;100914.37;;;6.67;100.00
42951;BME280;28592;51.064;17.192;2022-10-13T06:33:40;100918.58;;;6.83;100.00
42951;BME280;28592;51.064;17.192;2022-10-13T06:36:26;100916.90;;;6.82;100.00
42951;BME280;28592;51.064;17.192;2022-10-13T06:39:15;100910.86;;;6.94;100.00
42951;BME280;28592;51.064;17.192;2022-10-13T06:42:00;100911.17;;;7.16;100.00
42951;BME280;28592;51.064;17.192;2022-10-13T06:44:46;100909.48;;;7.15;100.00
42951;BME280;28592;51.064;17.192;2022-10-13T06:47:31;100910.38;;;7.29;100.00
42951;BME280;28592;51.064;17.192;2022-10-13T06:50:16;100900.34;;;7.48;100.00
42951;BME280;28592;51.064;17.192;2022-10-13T06:53:02;100894.22;;;7.47;100.00
42951;BME280;28592;51.064;17.192;2022-10-13T06:55:47;100895.73;;;7.64;100.00
42951;BME280;28592;51.064;17.192;2022-10-13T06:58:34;100896.94;;;7.85;100.00
42951;BME280;28592;51.064;17.192;2022-10-13T07:01:20;100903.17;;;7.84;100.00
42951;BME280;28592;51.064;17.192;2022-10-13T07:04:06;100888.65;;;8.16;100.00
42951;BME280;28592;51.064;17.192;2022-10-13T07:06:51;100897.52;;;8.15;100.00
42951;BME280;28592;51.064;17.192;2022-10-13T07:09:37;100897.04;;;8.35;100.00
42951;BME280;28592;51.064;17.192;2022-10-13T07:12:23;100896.69;;;8.52;100.00
42951;BME280;28592;51.064;17.192;2022-10-13T07:15:09;100892.37;;;8.51;100.00
42951;BME280;28592;51.064;17.192;2022-10-13T07:17:54;100893.06;;;8.78;100.00
42951;BME280;28592;51.064;17.192;2022-10-13T07:20:40;100882.70;;;8.75;100.00
42951;BME280;28592;51.064;17.192;2022-10-13T07:23:26;100890.48;;;9.02;100.00
42951;BME280;28592;51.064;17.192;2022-10-13T07:26:14;100890.78;;;9.10;100.00
42951;BME280;28592;51.064;17.192;2022-10-13T07:29:00;100893.02;;;9.27;100.00
42951;BME280;28592;51.064;17.192;2022-10-13T07:31:46;100893.98;;;9.26;100.00
42951;BME280;28592;51.064;17.192;2022-10-13T07:34:31;100883.95;;;9.42;100.00
42951;BME280;28592;51.064;17.192;2022-10-13T07:37:17;100885.03;;;9.63;100.00
42951;BME280;28592;51.064;17.192;2022-10-13T07:40:06;100881.53;;;9.62;100.00
42951;BME280;28592;51.064;17.192;2022-10-13T07:42:51;100878.40;;;9.92;100.00
42951;BME280;28592;51.064;17.192;2022-10-13T07:45:36;100888.87;;;9.93;100.00
42951;BME280;28592;51.064;17.192;2022-10-13T07:48:22;100879.22;;;9.92;100.00
42951;BME280;28592;51.064;17.192;2022-10-13T07:51:09;100884.11;;;10.09;100.00
42951;BME280;28592;51.064;17.192;2022-10-13T07:53:55;100883.77;;;10.14;100.00
42951;BME280;28592;51.064;17.192;2022-10-13T07:56:40;100871.72;;;10.21;100.00
42951;BME280;28592;51.064;17.192;2022-10-13T07:59:26;100869.96;;;10.43;100.00
42951;BME280;28592;51.064;17.192;2022-10-13T08:02:12;100865.60;;;10.42;100.00
42951;BME280;28592;51.064;17.192;2022-10-13T08:05:02;100859.12;;;10.46;100.00
42951;BME280;28592;51.064;17.192;2022-10-13T08:07:47;100860.80;;;10.70;100.00
42951;BME280;28592;51.064;17.192;2022-10-13T08:10:33;100853.80;;;10.68;100.00
42951;BME280;28592;51.064;17.192;2022-10-13T08:13:19;100848.73;;;10.88;100.00
42951;BME280;28592;51.064;17.192;2022-10-13T08:16:05;100855.20;;;11.06;100.00
42951;BME280;28592;51.064;17.192;2022-10-13T08:18:50;100852.05;;;11.12;100.00
42951;BME280;28592;51.064;17.192;2022-10-13T08:21:37;100852.09;;;11.32;100.00
42951;BME280;28592;51.064;17.192;2022-10-13T08:24:23;100846.91;;;11.31;100.00
42951;BME280;28592;51.064;17.192;2022-10-13T08:27:19;100842.89;;;11.47;100.00
42951;BME280;28592;51.064;17.192;2022-10-13T08:30:06;100843.31;;;11.63;100.00
42951;BME280;28592;51.064;17.192;2022-10-13T08:32:51;100845.80;;;11.76;100.00
42951;BME280;28592;51.064;17.192;2022-10-13T08:35:37;100841.58;;;11.94;100.00
42951;BME280;28592;51.064;17.192;2022-10-13T08:38:26;100843.91;;;12.08;100.00
42951;BME280;28592;51.064;17.192;2022-10-13T08:41:18;100837.28;;;12.23;100.00
42951;BME280;28592;51.064;17.192;2022-10-13T08:44:09;100836.54;;;12.42;100.00
42951;BME280;28592;51.064;17.192;2022-10-13T08:49:58;100838.86;;;12.65;100.00
42951;BME280;28592;51.064;17.192;2022-10-13T08:55:42;100831.50;;;12.78;100.00
42951;BME280;28592;51.064;17.192;2022-10-13T08:58:33;100834.39;;;13.05;100.00
42951;BME280;28592;51.064;17.192;2022-10-13T09:01:28;100820.37;;;13.03;100.00
42951;BME280;28592;51.064;17.192;2022-10-13T09:07:25;100832.59;;;13.53;100.00
42951;BME280;28592;51.064;17.192;2022-10-13T09:10:12;100834.69;;;13.59;100.00
42951;BME280;28592;51.064;17.192;2022-10-13T09:12:58;100827.84;;;13.66;99.16
42951;BME280;28592;51.064;17.192;2022-10-13T09:15:48;100822.23;;;13.50;98.52
42951;BME280;28592;51.064;17.192;2022-10-13T09:18:36;100825.31;;;13.55;99.22
42951;BME280;28592;51.064;17.192;2022-10-13T09:21:24;100825.17;;;13.66;99.79
42951;BME280;28592;51.064;17.192;2022-10-13T09:24:18;100819.85;;;13.66;99.99
42951;BME280;28592;51.064;17.192;2022-10-13T09:33:13;100810.58;;;14.36;97.09
42951;BME280;28592;51.064;17.192;2022-10-13T09:41:48;100802.33;;;14.66;92.05
42951;BME280;28592;51.064;17.192;2022-10-13T09:44:34;100800.91;;;14.89;90.52
42951;BME280;28592;51.064;17.192;2022-10-13T09:47:20;100801.91;;;14.88;90.43
42951;BME280;28592;51.064;17.192;2022-10-13T09:50:15;100804.17;;;14.83;90.61
42951;BME280;28592;51.064;17.192;2022-10-13T09:53:17;100793.03;;;15.14;89.84
42951;BME280;28592;51.064;17.192;2022-10-13T09:56:15;100794.72;;;15.50;86.39
42951;BME280;28592;51.064;17.192;2022-10-13T10:01:53;100783.69;;;15.71;85.51
42951;BME280;28592;51.064;17.192;2022-10-13T10:04:41;100789.61;;;15.57;86.69
42951;BME280;28592;51.064;17.192;2022-10-13T10:07:30;100790.03;;;15.70;85.74
42951;BME280;28592;51.064;17.192;2022-10-13T10:10:27;100783.84;;;15.69;85.65
42951;BME280;28592;51.064;17.192;2022-10-13T10:13:15;100779.16;;;16.15;83.61
42951;BME280;28592;51.064;17.192;2022-10-13T10:16:06;100776.07;;;16.35;82.54
42951;BME280;28592;51.064;17.192;2022-10-13T10:22:03;100777.01;;;16.52;82.44
42951;BME280;28592;51.064;17.192;2022-10-13T10:25:01;100772.06;;;16.65;82.46
42951;BME280;28592;51.064;17.192;2022-10-13T10:28:01;100763.09;;;16.82;81.28
42951;BME280;28592;51.064;17.192;2022-10-13T10:34:01;100757.73;;;16.90;80.12
42951;BME280;28592;51.064;17.192;2022-10-13T10:39:50;100748.56;;;17.08;79.40
42951;BME280;28592;51.064;17.192;2022-10-13T10:42:50;100747.59;;;17.25;79.33
42951;BME280;28592;51.064;17.192;2022-10-13T10:45:39;100743.25;;;17.24;80.47
42951;BME280;28592;51.064;17.192;2022-10-13T10:51:18;100728.52;;;17.36;79.14
42951;BME280;28592;51.064;17.192;2022-10-13T11:03:07;100710.78;;;17.60;79.52
42951;BME280;28592;51.064;17.192;2022-10-13T11:06:02;100701.83;;;17.91;79.58
42951;BME280;28592;51.064;17.192;2022-10-13T11:08:48;100697.92;;;18.10;77.29
42951;BME280;28592;51.064;17.192;2022-10-13T11:11:37;100697.08;;;18.09;77.52
42951;BME280;28592;51.064;17.192;2022-10-13T11:14:26;100698.70;;;17.56;80.42
42951;BME280;28592;51.064;17.192;2022-10-13T11:17:27;100684.27;;;17.81;79.15
42951;BME280;28592;51.064;17.192;2022-10-13T11:29:16;100669.28;;;18.71;77.11
42951;BME280;28592;51.064;17.192;2022-10-13T11:32:19;100668.52;;;18.85;75.74
42951;BME280;28592;51.064;17.192;2022-10-13T11:44:05;100643.42;;;19.15;76.79
42951;BME280;28592;51.064;17.192;2022-10-13T11:46:54;100638.23;;;19.14;76.85
42951;BME280;28592;51.064;17.192;2022-10-13T11:58:41;100629.56;;;19.64;74.01
42951;BME280;28592;51.064;17.192;2022-10-13T12:01:26;100627.05;;;19.62;74.02
42951;BME280;28592;51.064;17.192;2022-10-13T12:04:13;100619.07;;;19.40;74.76
42951;BME280;28592;51.064;17.192;2022-10-13T12:07:02;100616.01;;;19.57;74.69
42951;BME280;28592;51.064;17.192;2022-10-13T12:09:51;100620.56;;;19.71;72.80
42951;BME280;28592;51.064;17.192;2022-10-13T12:12:45;100616.19;;;19.70;72.85
42951;BME280;28592;51.064;17.192;2022-10-13T12:15:37;100610.63;;;19.86;72.35
42951;BME280;28592;51.064;17.192;2022-10-13T12:18:33;100610.35;;;19.96;72.72
42951;BME280;28592;51.064;17.192;2022-10-13T12:21:21;100605.16;;;19.94;74.16
42951;BME280;28592;51.064;17.192;2022-10-13T12:24:08;100604.59;;;19.99;73.31
42951;BME280;28592;51.064;17.192;2022-10-13T12:26:55;100606.80;;;20.24;72.16
42951;BME280;28592;51.064;17.192;2022-10-13T12:29:41;100599.11;;;20.21;71.20
42951;BME280;28592;51.064;17.192;2022-10-13T12:32:29;100596.91;;;19.81;74.33
42951;BME280;28592;51.064;17.192;2022-10-13T12:35:22;100599.03;;;20.00;73.68
42951;BME280;28592;51.064;17.192;2022-10-13T12:38:16;100592.80;;;20.00;73.69
42951;BME280;28592;51.064;17.192;2022-10-13T12:41:03;100584.36;;;20.03;72.21
42951;BME280;28592;51.064;17.192;2022-10-13T12:43:49;100580.45;;;20.05;72.32
42951;BME280;28592;51.064;17.192;2022-10-13T12:46:41;100592.91;;;19.92;70.31
42951;BME280;28592;51.064;17.192;2022-10-13T12:49:33;100591.39;;;20.04;71.85
42951;BME280;28592;51.064;17.192;2022-10-13T12:52:22;100582.23;;;19.98;71.59
42951;BME280;28592;51.064;17.192;2022-10-13T12:55:19;100582.42;;;19.97;71.54
42951;BME280;28592;51.064;17.192;2022-10-13T12:58:05;100584.17;;;20.04;73.40
42951;BME280;28592;51.064;17.192;2022-10-13T13:03:57;100587.41;;;20.14;69.12
42951;BME280;28592;51.064;17.192;2022-10-13T13:09:40;100584.02;;;20.41;70.33
42951;BME280;28592;51.064;17.192;2022-10-13T13:12:27;100582.33;;;20.40;70.41
42951;BME280;28592;51.064;17.192;2022-10-13T13:21:07;100575.02;;;19.84;70.02
42951;BME280;28592;51.064;17.192;2022-10-13T13:23:53;100573.54;;;19.67;71.67
42951;BME280;28592;51.064;17.192;2022-10-13T13:26:39;100581.53;;;19.61;74.35
42951;BME280;28592;51.064;17.192;2022-10-13T13:29:30;100579.58;;;19.69;73.24
42951;BME280;28592;51.064;17.192;2022-10-13T13:32:17;100576.33;;;19.88;71.46
42951;BME280;28592;51.064;17.192;2022-10-13T13:35:07;100575.06;;;20.05;73.69
42951;BME280;28592;51.064;17.192;2022-10-13T13:37:52;100567.39;;;20.17;72.70
42951;BME280;28592;51.064;17.192;2022-10-13T13:40:38;100564.78;;;20.23;73.63
42951;BME280;28592;51.064;17.192;2022-10-13T13:43:23;100550.17;;;20.32;71.66
42951;BME280;28592;51.064;17.192;2022-10-13T13:46:17;100556.56;;;20.31;71.82
42951;BME280;28592;51.064;17.192;2022-10-13T13:49:08;100556.98;;;19.99;71.47
42951;BME280;28592;51.064;17.192;2022-10-13T13:51:57;100555.71;;;19.95;72.11
42951;BME280;28592;51.064;17.192;2022-10-13T13:54:45;100553.50;;;19.84;72.35
42951;BME280;28592;51.064;17.192;2022-10-13T13:57:30;100553.52;;;19.55;73.03
42951;BME280;28592;51.064;17.192;2022-10-13T14:00:16;100545.55;;;19.76;72.98
42951;BME280;28592;51.064;17.192;2022-10-13T14:03:03;100545.33;;;19.92;71.89
42951;BME280;28592;51.064;17.192;2022-10-13T14:05:48;100546.23;;;19.99;71.65
42951;BME280;28592;51.064;17.192;2022-10-13T14:08:34;100536.23;;;19.93;70.94
42951;BME280;28592;51.064;17.192;2022-10-13T14:11:26;100538.20;;;19.85;72.02
42951;BME280;28592;51.064;17.192;2022-10-13T14:14:12;100537.95;;;19.51;71.18
42951;BME280;28592;51.064;17.192;2022-10-13T14:16:58;100531.77;;;19.50;71.07
42951;BME280;28592;51.064;17.192;2022-10-13T14:19:44;100533.51;;;19.43;71.34
42951;BME280;28592;51.064;17.192;2022-10-13T14:22:30;100532.04;;;19.41;71.50
42951;BME280;28592;51.064;17.192;2022-10-13T14:25:15;100529.48;;;19.24;71.97
42951;BME280;28592;51.064;17.192;2022-10-13T14:28:00;100523.70;;;18.84;72.92
42951;BME280;28592;51.064;17.192;2022-10-13T14:30:46;100522.04;;;18.83;72.66
42951;BME280;28592;51.064;17.192;2022-10-13T14:33:32;100521.31;;;18.89;73.32
42951;BME280;28592;51.064;17.192;2022-10-13T14:36:18;100518.89;;;18.94;72.62
42951;BME280;28592;51.064;17.192;2022-10-13T14:39:03;100518.26;;;18.92;72.91
42951;BME280;28592;51.064;17.192;2022-10-13T14:41:49;100520.95;;;19.06;73.11
42951;BME280;28592;51.064;17.192;2022-10-13T14:44:35;100514.95;;;19.04;73.08
42951;BME280;28592;51.064;17.192;2022-10-13T14:47:20;100523.75;;;19.13;73.14
42951;BME280;28592;51.064;17.192;2022-10-13T14:50:06;100522.27;;;19.10;72.90
42951;BME280;28592;51.064;17.192;2022-10-13T14:52:52;100520.58;;;19.09;72.91
42951;BME280;28592;51.064;17.192;2022-10-13T14:55:37;100517.89;;;18.95;74.29
42951;BME280;28592;51.064;17.192;2022-10-13T14:58:22;100519.36;;;18.83;74.51
42951;BME280;28592;51.064;17.192;2022-10-13T15:01:22;100517.22;;;18.56;74.73
42951;BME280;28592;51.064;17.192;2022-10-13T15:04:11;100514.27;;;18.51;75.27
42951;BME280;28592;51.064;17.192;2022-10-13T15:06:56;100508.40;;;18.25;75.39
42951;BME280;28592;51.064;17.192;2022-10-13T15:09:42;100511.44;;;18.22;75.36
42951;BME280;28592;51.064;17.192;2022-10-13T15:12:27;100506.13;;;18.14;75.07
42951;BME280;28592;51.064;17.192;2022-10-13T15:15:13;100504.47;;;18.13;75.07
42951;BME280;28592;51.064;17.192;2022-10-13T15:17:58;100494.48;;;17.99;75.14
42951;BME280;28592;51.064;17.192;2022-10-13T15:20:47;100503.28;;;17.85;75.59
42951;BME280;28592;51.064;17.192;2022-10-13T15:23:33;100497.35;;;17.67;76.34
42951;BME280;28592;51.064;17.192;2022-10-13T15:26:24;100488.03;;;17.55;76.67
42951;BME280;28592;51.064;17.192;2022-10-13T15:29:09;100497.95;;;17.38;77.17
42951;BME280;28592;51.064;17.192;2022-10-13T15:34:51;100494.86;;;17.10;78.18
42951;BME280;28592;51.064;17.192;2022-10-13T15:37:37;100495.91;;;16.85;79.14
42951;BME280;28592;51.064;17.192;2022-10-13T15:40:23;100493.95;;;16.71;80.11
42951;BME280;28592;51.064;17.192;2022-10-13T15:43:08;100492.77;;;16.58;80.65
42951;BME280;28592;51.064;17.192;2022-10-13T15:45:56;100494.28;;;16.44;81.29
42951;BME280;28592;51.064;17.192;2022-10-13T15:48:43;100488.23;;;16.34;82.05
42951;BME280;28592;51.064;17.192;2022-10-13T15:51:29;100489.57;;;16.22;83.11
42951;BME280;28592;51.064;17.192;2022-10-13T15:54:19;100492.06;;;16.16;83.92
42951;BME280;28592;51.064;17.192;2022-10-13T15:57:04;100490.05;;;16.10;83.91
42951;BME280;28592;51.064;17.192;2022-10-13T15:59:53;100490.03;;;16.02;84.28
42951;BME280;28592;51.064;17.192;2022-10-13T16:02:39;100494.89;;;15.98;84.38
42951;BME280;28592;51.064;17.192;2022-10-13T16:05:28;100503.57;;;15.92;84.54
42951;BME280;28592;51.064;17.192;2022-10-13T16:08:16;100503.22;;;15.87;85.10
42951;BME280;28592;51.064;17.192;2022-10-13T16:11:11;100501.03;;;15.83;85.28
42951;BME280;28592;51.064;17.192;2022-10-13T16:13:57;100503.51;;;15.76;85.59
42951;BME280;28592;51.064;17.192;2022-10-13T16:16:43;100501.98;;;15.65;86.46